KGLW

Glasgow Municipal Airport

Glasgow, Kentucky, USA
METAR KGLW 162355Z AUTO 19003KT 10SM CLR 06/M01 A3018 RMK AO2 T00581015 10106 20055
Observed Flight Rules
Dec-16 @ 23:55 UTC (39 minutes ago) Visual Flight Rules
Wind Visibility Clouds
190° at 3 knots 10 miles
  • Clear skies
Temperatures Readings
Current 6°C / 43°F
Dewpoint -2°C / 28°F
Humidity 57%
Altimeter 30.18" Hg
Pressure 1022 hPa
Elevation 218
METAR KGLW 162355Z AUTO 19003KT 10SM CLR 06/M01 A3018 RMK AO2 T00581015 10106 20055
Observed Flight Rules
Dec-16 @ 23:55 UTC
(39 minutes ago)
VFR
Wind Visibility
190° at 3 knots 10 miles
Clouds
  • Clear skies
Temperature Dewpoint
6°C / 43°F -2°C / 28°F
Humidity Altimeter Pressure
57% 30.18" Hg 1022 hPa